createdAt,value
2022-10-07T00:01:39.892Z,13.19
2022-10-07T00:04:08.268Z,13.16
2022-10-07T00:06:48.027Z,13.15
2022-10-07T00:09:16.172Z,13.15
2022-10-07T00:12:02.226Z,13.14
2022-10-07T00:14:37.918Z,13.13
2022-10-07T00:17:07.489Z,13.11
2022-10-07T00:19:44.423Z,13.11
2022-10-07T00:22:25.366Z,13.12
2022-10-07T00:24:53.523Z,13.11
2022-10-07T00:27:27.266Z,13.11
2022-10-07T00:29:59.977Z,13.08
2022-10-07T00:32:29.527Z,13.06
2022-10-07T00:35:11.834Z,13.05
2022-10-07T00:37:45.272Z,13.08
2022-10-07T00:40:14.649Z,13.11
2022-10-07T00:42:49.366Z,13.13
2022-10-07T00:45:21.537Z,13.16
2022-10-07T00:47:52.191Z,13.19
2022-10-07T00:50:27.835Z,13.26
2022-10-07T00:53:04.512Z,13.27
2022-10-07T00:55:33.827Z,13.27
2022-10-07T00:58:09.996Z,13.25
2022-10-07T01:00:41.032Z,13.26
2022-10-07T01:03:12.791Z,13.27
2022-10-07T01:05:44.630Z,13.33
2022-10-07T01:08:18.850Z,13.40
2022-10-07T01:11:00.036Z,13.41
2022-10-07T01:13:48.726Z,13.37
2022-10-07T01:16:30.917Z,13.32
2022-10-07T01:19:13.652Z,13.31
2022-10-07T01:21:54.171Z,13.27
2022-10-07T01:24:44.644Z,13.28
2022-10-07T01:27:22.450Z,13.35
2022-10-07T01:30:01.297Z,13.40
2022-10-07T01:32:37.130Z,13.47
2022-10-07T01:35:16.435Z,13.57
2022-10-07T01:37:48.604Z,13.62
2022-10-07T01:40:24.239Z,13.65
2022-10-07T01:42:59.132Z,13.71
2022-10-07T01:45:39.663Z,13.74
2022-10-07T01:48:11.011Z,13.75
2022-10-07T01:50:40.586Z,13.79
2022-10-07T01:53:27.702Z,13.79
2022-10-07T01:56:15.098Z,13.79
2022-10-07T01:59:08.756Z,13.78
2022-10-07T02:01:49.618Z,13.77
2022-10-07T02:04:34.702Z,13.78
2022-10-07T02:07:14.552Z,13.79
2022-10-07T02:09:51.053Z,13.78
2022-10-07T02:12:27.635Z,13.75
2022-10-07T02:15:09.600Z,13.73
2022-10-07T02:17:43.935Z,13.66
2022-10-07T02:20:20.406Z,13.58
2022-10-07T02:22:53.820Z,13.53
2022-10-07T02:25:29.232Z,13.50
2022-10-07T02:28:03.707Z,13.51
2022-10-07T02:30:39.476Z,13.52
2022-10-07T02:33:11.665Z,13.46
2022-10-07T02:35:50.824Z,13.36
2022-10-07T02:38:23.412Z,13.32
2022-10-07T02:40:59.779Z,13.34
2022-10-07T02:43:33.553Z,13.30
2022-10-07T02:46:10.489Z,13.31
2022-10-07T02:48:42.247Z,13.27
2022-10-07T02:51:18.651Z,13.25
2022-10-07T02:53:56.485Z,13.26
2022-10-07T02:56:29.108Z,13.27
2022-10-07T02:58:59.526Z,13.30
2022-10-07T03:01:33.732Z,13.30
2022-10-07T03:04:06.719Z,13.29
2022-10-07T03:06:39.368Z,13.31
2022-10-07T03:09:17.858Z,13.31
2022-10-07T03:11:49.510Z,13.29
2022-10-07T03:14:24.821Z,13.30
2022-10-07T03:16:56.428Z,13.31
2022-10-07T03:19:27.154Z,13.30
2022-10-07T03:21:58.379Z,13.33
2022-10-07T03:24:34.380Z,13.32
2022-10-07T03:27:07.318Z,13.32
2022-10-07T03:29:38.046Z,13.30
2022-10-07T03:32:19.492Z,13.31
2022-10-07T03:34:50.282Z,13.29
2022-10-07T03:37:23.862Z,13.30
2022-10-07T03:39:56.858Z,13.28
2022-10-07T03:42:30.907Z,13.28
2022-10-07T03:45:01.663Z,13.27
2022-10-07T03:47:39.268Z,13.23
2022-10-07T03:50:08.910Z,13.23
2022-10-07T03:52:38.680Z,13.23
2022-10-07T03:55:10.708Z,13.26
2022-10-07T03:58:00.112Z,13.28
2022-10-07T04:00:30.908Z,13.36
2022-10-07T04:03:07.840Z,13.37
2022-10-07T04:05:39.692Z,13.42
2022-10-07T04:08:08.267Z,13.44
2022-10-07T04:10:37.570Z,13.42
2022-10-07T04:13:22.581Z,13.41
2022-10-07T04:16:06.346Z,13.38
2022-10-07T04:18:38.629Z,13.33
2022-10-07T04:21:09.824Z,13.34
2022-10-07T04:23:38.845Z,13.35
2022-10-07T04:26:11.391Z,13.32
2022-10-07T04:28:43.736Z,13.26
2022-10-07T04:31:12.584Z,13.17
2022-10-07T04:33:51.886Z,13.11
2022-10-07T04:36:20.277Z,13.04
2022-10-07T04:38:53.413Z,13.01
2022-10-07T04:41:23.178Z,13.06
2022-10-07T04:43:55.398Z,13.11
2022-10-07T04:46:26.329Z,13.13
2022-10-07T04:49:06.544Z,13.10
2022-10-07T04:51:37.879Z,13.14
2022-10-07T04:54:06.998Z,13.16
2022-10-07T04:56:40.011Z,13.19
2022-10-07T04:59:10.342Z,13.21
2022-10-07T05:01:41.492Z,13.27
2022-10-07T05:04:13.868Z,13.33
2022-10-07T05:06:44.318Z,13.37
2022-10-07T05:09:14.925Z,13.36
2022-10-07T05:11:45.737Z,13.33
2022-10-07T05:14:13.909Z,13.23
2022-10-07T05:16:51.504Z,13.14
2022-10-07T05:19:23.564Z,13.14
2022-10-07T05:21:53.068Z,13.16
2022-10-07T05:24:23.161Z,13.19
2022-10-07T05:26:54.848Z,13.18
2022-10-07T05:29:23.539Z,13.17
2022-10-07T05:31:52.116Z,13.14
2022-10-07T05:34:21.693Z,13.11
2022-10-07T05:36:51.339Z,13.15
2022-10-07T05:39:27.491Z,13.24
2022-10-07T05:42:01.560Z,13.26
2022-10-07T05:44:41.703Z,13.27
2022-10-07T05:47:09.893Z,13.27
2022-10-07T05:49:41.695Z,13.24
2022-10-07T05:52:11.721Z,13.18
2022-10-07T05:54:41.851Z,13.12
2022-10-07T05:57:10.903Z,13.11
2022-10-07T05:59:41.542Z,13.15
2022-10-07T06:02:15.601Z,13.12
2022-10-07T06:04:47.723Z,13.11
2022-10-07T06:07:22.705Z,13.07
2022-10-07T06:10:12.783Z,12.98
2022-10-07T06:13:03.600Z,12.95
2022-10-07T06:15:38.319Z,12.92
2022-10-07T06:18:06.820Z,12.92
2022-10-07T06:20:36.681Z,12.95
2022-10-07T06:23:07.463Z,12.95
2022-10-07T06:25:36.767Z,12.78
2022-10-07T06:28:07.302Z,12.46
2022-10-07T06:30:44.744Z,12.16
2022-10-07T06:33:15.836Z,11.86
2022-10-07T06:35:48.302Z,11.71
2022-10-07T06:38:25.666Z,11.61
2022-10-07T06:41:07.426Z,11.58
2022-10-07T06:43:51.730Z,11.60
2022-10-07T06:46:21.267Z,11.62
2022-10-07T06:48:53.591Z,11.61
2022-10-07T06:51:23.450Z,11.52
2022-10-07T06:53:56.104Z,11.43
2022-10-07T06:56:34.341Z,11.37
2022-10-07T06:59:03.743Z,11.30
2022-10-07T07:01:42.731Z,11.22
2022-10-07T07:04:10.886Z,11.17
2022-10-07T07:06:44.196Z,11.13
2022-10-07T07:09:15.583Z,11.11
2022-10-07T07:11:45.371Z,11.13
2022-10-07T07:14:14.470Z,11.15
2022-10-07T07:16:48.050Z,11.19
2022-10-07T07:19:20.013Z,11.22
2022-10-07T07:21:53.024Z,11.23
2022-10-07T07:24:21.701Z,11.21
2022-10-07T07:26:51.393Z,11.19
2022-10-07T07:29:24.615Z,11.21
2022-10-07T07:31:53.123Z,11.24
2022-10-07T07:34:26.479Z,11.25
2022-10-07T07:37:03.807Z,11.19
2022-10-07T07:39:32.188Z,11.12
2022-10-07T07:42:06.313Z,11.09
2022-10-07T07:44:39.104Z,11.07
2022-10-07T07:47:08.763Z,11.17
2022-10-07T07:49:45.128Z,11.16
2022-10-07T07:52:14.863Z,11.08
2022-10-07T07:54:45.163Z,10.99
2022-10-07T07:57:19.743Z,10.96
2022-10-07T07:59:49.220Z,10.92
2022-10-07T08:02:23.839Z,10.92
2022-10-07T08:04:52.221Z,10.91
2022-10-07T08:07:24.057Z,10.94
2022-10-07T08:09:54.293Z,11.04
2022-10-07T08:12:26.107Z,11.10
2022-10-07T08:14:55.492Z,11.11
2022-10-07T08:17:26.264Z,11.05
2022-10-07T08:19:59.755Z,11.00
2022-10-07T08:22:29.349Z,10.98
2022-10-07T08:25:00.519Z,10.99
2022-10-07T08:27:31.123Z,11.04
2022-10-07T08:30:01.066Z,11.08
2022-10-07T08:32:35.305Z,11.20
2022-10-07T08:35:06.215Z,11.24
2022-10-07T08:37:35.730Z,11.17
2022-10-07T08:40:03.997Z,11.17
2022-10-07T08:42:41.413Z,11.31
2022-10-07T08:45:18.583Z,11.43
2022-10-07T08:47:54.733Z,11.41
2022-10-07T08:50:32.411Z,11.48
2022-10-07T08:53:08.826Z,11.62
2022-10-07T08:55:43.958Z,11.75
2022-10-07T08:58:35.459Z,11.87
2022-10-07T09:01:34.214Z,11.93
2022-10-07T09:04:15.923Z,12.07
2022-10-07T09:06:55.125Z,12.15
2022-10-07T09:09:29.396Z,12.16
2022-10-07T09:11:59.232Z,12.09
2022-10-07T09:14:31.473Z,12.08
2022-10-07T09:17:06.810Z,12.17
2022-10-07T09:19:38.494Z,12.29
2022-10-07T09:22:14.651Z,12.38
2022-10-07T09:24:49.935Z,12.46
2022-10-07T09:27:24.390Z,12.55
2022-10-07T09:29:52.737Z,12.61
2022-10-07T09:32:21.526Z,12.63
2022-10-07T09:34:49.609Z,12.68
2022-10-07T09:37:27.272Z,12.74
2022-10-07T09:40:17.688Z,12.77
2022-10-07T09:42:52.885Z,12.81
2022-10-07T09:45:26.431Z,12.84
2022-10-07T09:47:56.856Z,12.89
2022-10-07T09:50:40.118Z,12.96
2022-10-07T09:53:22.187Z,13.00
2022-10-07T09:55:55.416Z,13.02
2022-10-07T09:58:27.707Z,13.09
2022-10-07T10:00:58.416Z,13.14
2022-10-07T10:03:31.266Z,13.20
2022-10-07T10:06:01.428Z,13.30
2022-10-07T10:08:34.422Z,13.40
2022-10-07T10:11:09.106Z,13.59
2022-10-07T10:13:48.866Z,13.82
2022-10-07T10:16:35.388Z,13.94
2022-10-07T10:19:11.236Z,13.96
2022-10-07T10:21:50.199Z,13.99
2022-10-07T10:24:41.652Z,13.95
2022-10-07T10:27:18.339Z,13.93
2022-10-07T10:30:19.561Z,13.95
2022-10-07T10:33:15.872Z,14.03
2022-10-07T10:36:00.777Z,14.11
2022-10-07T10:38:37.987Z,14.15
2022-10-07T10:41:25.061Z,14.17
2022-10-07T10:44:35.340Z,14.23
2022-10-07T10:47:14.643Z,14.25
2022-10-07T10:49:53.254Z,14.27
2022-10-07T10:52:45.607Z,14.31
2022-10-07T10:55:37.068Z,14.41
2022-10-07T10:58:26.742Z,14.49
2022-10-07T11:01:04.946Z,14.59
2022-10-07T11:03:49.296Z,14.75
2022-10-07T11:06:31.584Z,14.91
2022-10-07T11:09:08.801Z,15.15
2022-10-07T11:11:41.567Z,15.11
2022-10-07T11:14:20.412Z,15.08
2022-10-07T11:16:59.830Z,14.97
2022-10-07T11:19:32.553Z,14.84
2022-10-07T11:22:06.505Z,14.86
2022-10-07T11:24:46.671Z,15.00
2022-10-07T11:27:30.355Z,14.99
2022-10-07T11:30:11.372Z,14.63
2022-10-07T11:33:04.033Z,14.41
2022-10-07T11:35:47.131Z,14.45
2022-10-07T11:38:21.655Z,14.57
2022-10-07T11:41:07.845Z,14.81
2022-10-07T11:43:53.874Z,15.08
2022-10-07T11:46:28.092Z,15.29
2022-10-07T11:49:08.396Z,15.51
2022-10-07T11:51:38.221Z,15.65
2022-10-07T11:54:13.788Z,15.79
2022-10-07T11:56:55.308Z,15.90
2022-10-07T11:59:42.373Z,16.09
2022-10-07T12:02:38.427Z,16.05
2022-10-07T12:05:56.852Z,16.11
2022-10-07T12:08:33.428Z,16.25
2022-10-07T12:11:50.124Z,16.46
2022-10-07T12:14:36.476Z,16.68
2022-10-07T12:17:33.582Z,16.75
2022-10-07T12:20:46.535Z,16.79
2022-10-07T12:24:11.506Z,16.71
2022-10-07T12:26:47.426Z,16.89
2022-10-07T12:29:59.386Z,16.78
2022-10-07T12:33:04.263Z,16.84
2022-10-07T12:35:55.921Z,16.95
2022-10-07T12:38:33.589Z,16.90
2022-10-07T12:41:26.119Z,17.04
2022-10-07T12:44:07.284Z,17.54
2022-10-07T12:47:20.414Z,17.72
2022-10-07T12:49:51.245Z,17.90
2022-10-07T12:52:35.969Z,17.84
2022-10-07T12:59:07.196Z,18.29
2022-10-07T13:02:30.128Z,18.58
2022-10-07T13:05:37.916Z,18.77
2022-10-07T13:08:48.423Z,18.59
2022-10-07T13:12:00.200Z,18.49
2022-10-07T13:14:44.631Z,18.33
2022-10-07T13:25:15.948Z,18.33
2022-10-07T13:31:31.102Z,18.54
2022-10-07T13:34:18.171Z,18.30
2022-10-07T13:37:16.507Z,17.89
2022-10-07T13:39:44.989Z,17.04
2022-10-07T13:43:26.898Z,16.46
2022-10-07T13:50:59.424Z,13.70
2022-10-07T13:53:32.223Z,13.98
2022-10-07T13:56:17.600Z,14.05
2022-10-07T13:58:46.781Z,13.87
2022-10-07T14:01:15.624Z,13.77
2022-10-07T14:04:05.137Z,13.73
2022-10-07T14:06:40.814Z,13.74
2022-10-07T14:09:28.829Z,13.71
2022-10-07T14:12:01.623Z,13.83
2022-10-07T14:14:40.241Z,13.79
2022-10-07T14:17:19.696Z,13.74
2022-10-07T14:19:55.011Z,13.66
2022-10-07T14:22:32.923Z,13.75
2022-10-07T14:25:19.041Z,13.99
2022-10-07T14:28:24.707Z,13.77
2022-10-07T14:31:30.257Z,13.72
2022-10-07T14:34:27.347Z,13.77
2022-10-07T14:37:26.239Z,13.59
2022-10-07T14:40:05.562Z,13.45
2022-10-07T14:43:10.575Z,13.36
2022-10-07T14:46:13.316Z,13.41
2022-10-07T14:48:46.406Z,13.40
2022-10-07T14:51:16.861Z,13.48
2022-10-07T14:57:04.984Z,13.53
2022-10-07T14:59:35.877Z,13.63
2022-10-07T15:02:08.911Z,13.65
2022-10-07T15:04:37.355Z,13.70
2022-10-07T15:07:05.694Z,13.67
2022-10-07T15:09:33.854Z,13.68
2022-10-07T15:12:02.028Z,13.68
2022-10-07T15:14:36.081Z,13.67
2022-10-07T15:17:17.096Z,13.62
2022-10-07T15:19:45.553Z,13.63
2022-10-07T15:23:16.251Z,13.62
2022-10-07T15:31:05.909Z,13.74
2022-10-07T15:33:25.844Z,13.67
2022-10-07T15:38:54.855Z,13.66
2022-10-07T15:41:36.304Z,13.58
2022-10-07T15:44:32.072Z,13.48
2022-10-07T15:50:53.513Z,13.67
2022-10-07T15:57:28.580Z,14.15
2022-10-07T16:00:05.549Z,14.09
2022-10-07T16:03:23.041Z,13.89
2022-10-07T16:06:40.285Z,13.77
2022-10-07T16:09:18.928Z,13.70
2022-10-07T16:12:10.062Z,13.73
2022-10-07T16:15:00.956Z,13.72
2022-10-07T16:21:00.003Z,13.75
2022-10-07T16:23:31.717Z,13.86
2022-10-07T16:26:08.659Z,13.55
2022-10-07T16:28:58.100Z,13.09
2022-10-07T16:31:31.603Z,12.72
2022-10-07T16:34:23.615Z,12.46
2022-10-07T16:37:01.952Z,12.44
2022-10-07T16:39:33.413Z,12.35
2022-10-07T16:42:04.582Z,12.36
2022-10-07T16:45:36.318Z,12.31
2022-10-07T16:51:04.094Z,12.26
2022-10-07T16:53:43.350Z,12.29
2022-10-07T16:56:33.473Z,12.28
2022-10-07T16:59:09.968Z,12.25
2022-10-07T17:01:44.258Z,12.23
2022-10-07T17:04:22.626Z,12.23
2022-10-07T17:06:53.030Z,12.26
2022-10-07T17:09:25.393Z,12.24
2022-10-07T17:12:09.510Z,12.23
2022-10-07T17:17:30.570Z,12.12
2022-10-07T17:20:06.349Z,12.06
2022-10-07T17:22:46.812Z,12.00
2022-10-07T17:25:24.530Z,11.94
2022-10-07T17:32:27.399Z,11.83
2022-10-07T17:35:03.852Z,11.73
2022-10-07T17:37:32.488Z,11.68
2022-10-07T17:40:21.969Z,11.60
2022-10-07T17:47:03.628Z,11.47
2022-10-07T17:49:31.075Z,11.43
2022-10-07T17:52:26.551Z,11.42
2022-10-07T17:55:15.497Z,11.40
2022-10-07T17:58:04.673Z,11.36
2022-10-07T18:00:40.567Z,11.31
2022-10-07T18:03:30.222Z,11.26
2022-10-07T18:06:02.722Z,11.22
2022-10-07T18:08:32.814Z,11.16
2022-10-07T18:14:11.958Z,11.04
2022-10-07T18:17:02.556Z,11.00
2022-10-07T18:19:33.201Z,10.95
2022-10-07T18:23:37.099Z,10.92
2022-10-07T18:25:28.192Z,10.87
2022-10-07T18:28:20.256Z,10.83
2022-10-07T18:37:47.351Z,10.66
2022-10-07T18:40:25.289Z,10.63
2022-10-07T18:45:39.616Z,10.60
2022-10-07T18:51:33.497Z,10.58
2022-10-07T18:54:02.969Z,10.54
2022-10-07T18:56:37.084Z,10.49
2022-10-07T18:59:09.854Z,10.42
2022-10-07T19:01:41.133Z,10.38
2022-10-07T19:07:13.098Z,10.29
2022-10-07T19:09:41.540Z,10.27
2022-10-07T19:12:25.165Z,10.22
2022-10-07T19:15:04.571Z,10.19
2022-10-07T19:17:34.893Z,10.16
2022-10-07T19:20:04.973Z,10.14
2022-10-07T19:22:36.097Z,10.10
2022-10-07T19:25:28.775Z,10.05
2022-10-07T19:27:58.661Z,10.04
2022-10-07T19:30:28.784Z,9.97
2022-10-07T19:32:59.407Z,9.95
2022-10-07T19:35:50.458Z,9.92
2022-10-07T19:38:20.733Z,9.91
2022-10-07T19:40:53.822Z,9.88
2022-10-07T19:43:36.388Z,9.84
2022-10-07T19:46:08.660Z,9.82
2022-10-07T19:48:44.544Z,9.80
2022-10-07T19:51:18.160Z,9.77
2022-10-07T19:53:51.471Z,9.72
2022-10-07T19:56:37.230Z,9.69
2022-10-07T19:59:39.486Z,9.68
2022-10-07T20:02:23.763Z,9.66
2022-10-07T20:05:02.176Z,9.59
2022-10-07T20:07:30.696Z,9.59
2022-10-07T20:10:07.530Z,9.51
2022-10-07T20:12:36.173Z,9.50
2022-10-07T20:15:06.882Z,9.49
2022-10-07T20:17:35.236Z,9.46
2022-10-07T20:20:14.630Z,9.41
2022-10-07T20:22:48.596Z,9.39
2022-10-07T20:25:18.619Z,9.41
2022-10-07T20:27:49.785Z,9.37
2022-10-07T20:30:19.640Z,9.33
2022-10-07T20:32:48.537Z,9.31
2022-10-07T20:35:17.540Z,9.26
2022-10-07T20:37:56.063Z,9.23
2022-10-07T20:40:43.272Z,9.23
2022-10-07T20:43:30.094Z,9.21
2022-10-07T20:45:59.834Z,9.17
2022-10-07T20:48:31.748Z,9.16
2022-10-07T20:51:19.154Z,9.13
2022-10-07T20:53:50.275Z,9.09
2022-10-07T20:56:21.768Z,9.05
2022-10-07T20:58:50.163Z,9.07
2022-10-07T21:01:28.534Z,9.03
2022-10-07T21:03:59.915Z,9.02
2022-10-07T21:06:28.417Z,9.00
2022-10-07T21:08:58.010Z,8.98
2022-10-07T21:11:30.539Z,9.00
2022-10-07T21:14:00.858Z,8.96
2022-10-07T21:16:32.948Z,8.94
2022-10-07T21:19:01.980Z,8.95
2022-10-07T21:21:38.417Z,8.92
2022-10-07T21:24:07.944Z,8.90
2022-10-07T21:26:36.716Z,8.87
2022-10-07T21:29:07.276Z,8.83
2022-10-07T21:31:54.381Z,8.83
2022-10-07T21:34:26.174Z,8.81
2022-10-07T21:36:57.389Z,8.79
2022-10-07T21:39:38.421Z,8.78
2022-10-07T21:42:09.454Z,8.76
2022-10-07T21:44:38.144Z,8.70
2022-10-07T21:47:10.456Z,8.72
2022-10-07T21:49:39.195Z,8.69
2022-10-07T21:52:08.000Z,8.66
2022-10-07T21:54:41.322Z,8.62
2022-10-07T21:57:10.056Z,8.61
2022-10-07T21:59:43.114Z,8.60
2022-10-07T22:02:13.891Z,8.59
2022-10-07T22:04:59.924Z,8.53
2022-10-07T22:07:45.564Z,8.55
2022-10-07T22:10:26.107Z,8.51
2022-10-07T22:12:54.379Z,8.49
2022-10-07T22:15:23.845Z,8.47
2022-10-07T22:17:53.713Z,8.45
2022-10-07T22:20:22.359Z,8.41
2022-10-07T22:22:55.514Z,8.40
2022-10-07T22:25:27.730Z,8.39
2022-10-07T22:27:56.383Z,8.36
2022-10-07T22:30:25.349Z,8.33
2022-10-07T22:32:55.032Z,8.31
2022-10-07T22:35:34.385Z,8.31
2022-10-07T22:38:05.512Z,8.27
2022-10-07T22:40:38.580Z,8.25
2022-10-07T22:43:09.749Z,8.26
2022-10-07T22:45:38.226Z,8.24
2022-10-07T22:48:09.028Z,8.24
2022-10-07T22:50:37.417Z,8.19
2022-10-07T22:53:13.469Z,8.20
2022-10-07T22:55:41.942Z,8.16
2022-10-07T22:58:19.318Z,8.15
2022-10-07T23:00:50.810Z,8.14
2022-10-07T23:03:24.871Z,8.14
2022-10-07T23:06:04.054Z,8.13
2022-10-07T23:08:38.641Z,8.10
2022-10-07T23:11:16.067Z,8.08
2022-10-07T23:13:48.312Z,8.07
2022-10-07T23:16:19.599Z,8.05
2022-10-07T23:18:53.213Z,8.01
2022-10-07T23:21:28.036Z,8.01
2022-10-07T23:24:07.391Z,8.03
2022-10-07T23:26:48.956Z,8.06
2022-10-07T23:29:21.268Z,8.02
2022-10-07T23:31:51.674Z,8.02
2022-10-07T23:34:23.079Z,8.02
2022-10-07T23:36:56.832Z,8.03
2022-10-07T23:39:25.931Z,8.05
2022-10-07T23:41:55.089Z,8.04
2022-10-07T23:44:25.275Z,8.02
2022-10-07T23:46:55.155Z,8.03
2022-10-07T23:49:26.224Z,8.04
2022-10-07T23:51:54.808Z,8.01
2022-10-07T23:54:23.087Z,8.00
2022-10-07T23:56:51.765Z,7.98
2022-10-07T23:59:20.250Z,7.97
